Time;durP1;ratioP1;P1;durP2;ratioP2;P2;SDS_P1;SDS_P2;PMS_P1;PMS_P2;Temp;Humidity;BMP_temperature;BMP_pressure;BME280_temperature;BME280_humidity;BME280_pressure;Samples;Min_cycle;Max_cycle;Signal;HPM_P1;HPM_P2
2022/01/20 00:02:16;;;;;;;14.88;2.55;;;4.30;99.90;;;;;;4998164;28;20035;-75
2022/01/20 00:04:49;;;;;;;16.17;2.42;;;4.30;99.90;;;;;;4992837;28;20046;-76
2022/01/20 00:07:32;;;;;;;16.33;2.03;;;4.20;99.90;;;;;;4995235;28;20042;-76
2022/01/20 00:26:11;;;;;;;14.70;2.33;;;4.20;99.90;;;;;;4995963;28;20043;-76
2022/01/20 00:34:36;;;;;;;12.07;1.02;;;4.20;99.90;;;;;;4977689;28;20050;-76
2022/01/20 00:39:10;;;;;;;11.88;1.70;;;4.20;99.90;;;;;;5007510;28;20393;-75
2022/01/20 00:41:35;;;;;;;13.02;1.80;;;4.20;99.90;;;;;;4975733;28;20073;-75
2022/01/20 00:44:01;;;;;;;13.68;1.40;;;4.20;99.90;;;;;;4979262;28;20194;-76
2022/01/20 00:46:26;;;;;;;11.00;1.30;;;4.20;99.90;;;;;;5012737;28;20042;-75
2022/01/20 00:48:52;;;;;;;12.27;1.77;;;4.20;99.90;;;;;;5011442;28;20761;-75
2022/01/20 00:51:18;;;;;;;13.25;1.65;;;4.20;99.90;;;;;;5011584;28;20045;-76
2022/01/20 00:53:44;;;;;;;17.38;1.73;;;4.20;99.90;;;;;;4992491;28;20047;-76
2022/01/20 00:56:12;;;;;;;15.35;1.58;;;4.10;99.90;;;;;;4995354;28;20076;-76
2022/01/20 00:58:38;;;;;;;18.30;1.48;;;4.10;99.90;;;;;;4978764;28;20050;-76
2022/01/20 01:01:03;;;;;;;17.00;1.83;;;4.00;99.90;;;;;;5008373;28;20113;-76
2022/01/20 01:03:29;;;;;;;15.27;1.70;;;4.00;99.90;;;;;;5010484;28;20173;-76
2022/01/20 01:06:45;;;;;;;12.25;1.27;;;4.10;99.90;;;;;;4995929;28;20042;-75
2022/01/20 01:08:44;;;;;;;14.68;1.60;;;4.00;99.90;;;;;;4987338;28;20046;-76
2022/01/20 01:11:10;;;;;;;17.98;1.88;;;4.00;99.90;;;;;;4973717;28;20046;-76
2022/01/20 01:13:36;;;;;;;10.60;1.33;;;4.00;99.90;;;;;;4995589;28;20049;-76
2022/01/20 01:16:04;;;;;;;15.38;2.95;;;4.00;99.90;;;;;;4974905;28;20041;-76
2022/01/20 01:21:27;;;;;;;17.38;1.67;;;4.10;99.90;;;;;;5009738;28;20054;-75
2022/01/20 01:23:53;;;;;;;12.35;1.42;;;4.10;99.90;;;;;;5008450;28;20049;-75
2022/01/20 01:26:21;;;;;;;15.30;3.40;;;4.10;99.90;;;;;;4993699;28;20492;-76
2022/01/20 01:28:47;;;;;;;13.65;1.45;;;4.10;99.90;;;;;;5007039;28;20061;-75
2022/01/20 01:33:55;;;;;;;12.05;1.92;;;4.20;99.90;;;;;;4997095;28;20037;-75
2022/01/20 01:36:22;;;;;;;14.40;2.03;;;4.20;99.90;;;;;;4976232;28;20038;-76
2022/01/20 01:38:48;;;;;;;12.60;1.92;;;4.20;99.90;;;;;;4994203;28;20046;-76
2022/01/20 01:41:18;;;;;;;14.90;1.30;;;4.30;99.90;;;;;;4994833;28;20031;-76
2022/01/20 01:43:47;;;;;;;16.17;2.40;;;4.30;99.90;;;;;;5013049;28;20050;-76
2022/01/20 01:46:14;;;;;;;10.48;1.00;;;4.30;99.90;;;;;;5008302;28;20049;-76
2022/01/20 01:48:41;;;;;;;10.77;1.08;;;4.30;99.90;;;;;;4993500;28;20085;-75
2022/01/20 01:51:09;;;;;;;10.23;1.25;;;4.40;99.90;;;;;;4977867;28;20116;-75
2022/01/20 01:53:34;;;;;;;8.50;1.13;;;4.40;99.90;;;;;;4996073;28;20038;-76
2022/01/20 01:56:01;;;;;;;13.45;1.27;;;4.40;99.90;;;;;;4995877;28;20253;-76
2022/01/20 01:58:27;;;;;;;6.90;0.60;;;4.40;99.90;;;;;;4996120;28;20044;-76
2022/01/20 02:00:54;;;;;;;10.90;1.13;;;4.40;99.90;;;;;;4995694;28;20042;-75
2022/01/20 02:03:20;;;;;;;10.43;1.13;;;4.40;99.90;;;;;;4992548;28;20096;-75
2022/01/20 02:06:01;;;;;;;10.20;1.38;;;4.40;99.90;;;;;;4993617;28;20484;-76
2022/01/20 02:08:40;;;;;;;11.20;0.95;;;4.40;99.90;;;;;;4961054;28;20179;-75
2022/01/20 02:19:19;;;;;;;5.20;0.88;;;4.30;99.90;;;;;;4992206;28;20046;-76
2022/01/20 02:22:03;;;;;;;12.77;1.45;;;4.20;99.90;;;;;;4976322;28;20048;-75
2022/01/20 02:24:30;;;;;;;11.95;0.90;;;4.30;99.90;;;;;;4993315;28;20767;-76
2022/01/20 02:26:56;;;;;;;6.13;0.93;;;4.30;99.90;;;;;;4994135;28;20049;-76
2022/01/20 02:29:22;;;;;;;6.70;0.90;;;4.30;99.90;;;;;;5007109;28;20043;-76
2022/01/20 02:31:56;;;;;;;15.63;1.20;;;4.40;99.90;;;;;;4997440;28;20484;-76
2022/01/20 02:34:23;;;;;;;11.57;1.10;;;4.40;99.90;;;;;;5011187;28;20039;-76
2022/01/20 02:36:49;;;;;;;16.80;1.58;;;4.50;99.90;;;;;;5010108;28;20038;-76
2022/01/20 02:40:03;;;;;;;9.60;0.98;;;4.50;99.90;;;;;;4973495;28;20061;-76
2022/01/20 02:45:01;;;;;;;10.65;1.42;;;4.50;99.90;;;;;;5006353;28;20050;-76
2022/01/20 02:47:29;;;;;;;9.65;1.40;;;4.40;99.90;;;;;;4993742;28;20399;-76
2022/01/20 02:49:55;;;;;;;8.75;1.27;;;4.40;99.90;;;;;;4957684;28;20038;-76
2022/01/20 02:52:22;;;;;;;12.38;1.02;;;4.40;99.90;;;;;;5005332;28;20042;-76
2022/01/20 02:54:48;;;;;;;14.07;1.52;;;4.30;99.90;;;;;;4996534;28;20038;-76
2022/01/20 02:57:13;;;;;;;8.18;1.27;;;4.30;99.90;;;;;;4997881;28;20038;-76
2022/01/20 02:59:40;;;;;;;9.82;1.40;;;4.30;99.90;;;;;;4996311;28;20050;-76
2022/01/20 03:02:08;;;;;;;8.02;1.02;;;4.20;99.90;;;;;;4978631;28;20038;-76
2022/01/20 03:04:34;;;;;;;11.23;1.50;;;4.30;99.90;;;;;;5012035;28;20493;-76
2022/01/20 03:06:59;;;;;;;11.52;1.20;;;4.50;99.90;;;;;;4996552;28;20042;-76
2022/01/20 03:09:25;;;;;;;13.85;1.48;;;4.20;99.90;;;;;;5012044;28;20061;-75
2022/01/20 03:11:53;;;;;;;14.10;2.25;;;4.20;99.90;;;;;;5014633;28;20508;-76
2022/01/20 03:14:18;;;;;;;14.63;1.67;;;4.10;99.90;;;;;;4997556;28;20396;-76
2022/01/20 03:16:45;;;;;;;11.63;1.55;;;4.20;99.90;;;;;;4999102;28;20038;-76
2022/01/20 03:19:11;;;;;;;15.95;2.38;;;4.10;99.90;;;;;;5010828;28;20046;-76
2022/01/20 03:21:38;;;;;;;14.80;2.45;;;4.20;99.90;;;;;;4978134;28;20042;-76
2022/01/20 03:24:05;;;;;;;14.10;1.80;;;4.20;99.90;;;;;;4979966;28;20030;-76
2022/01/20 03:26:31;;;;;;;22.55;3.22;;;4.20;99.90;;;;;;4996144;28;20046;-76
2022/01/20 03:28:57;;;;;;;23.45;2.40;;;4.10;99.90;;;;;;5014509;28;20057;-76
2022/01/20 03:31:24;;;;;;;20.95;2.17;;;4.20;99.90;;;;;;4995240;28;20049;-76
2022/01/20 03:33:50;;;;;;;17.90;2.38;;;4.20;99.90;;;;;;5012144;28;20176;-76
2022/01/20 03:36:16;;;;;;;17.50;3.38;;;4.20;99.90;;;;;;5011414;28;20550;-76
2022/01/20 03:38:41;;;;;;;26.23;3.60;;;4.20;99.90;;;;;;4996157;28;20050;-76
2022/01/20 03:41:07;;;;;;;18.98;3.10;;;4.20;99.90;;;;;;4996705;28;20061;-76
2022/01/20 03:43:33;;;;;;;33.10;5.07;;;4.30;99.90;;;;;;4984020;28;20408;-76
2022/01/20 03:46:00;;;;;;;21.67;3.40;;;4.20;99.90;;;;;;4996704;28;20089;-76
2022/01/20 03:48:28;;;;;;;23.05;3.17;;;4.30;99.90;;;;;;4979937;28;20064;-76
2022/01/20 03:51:05;;;;;;;22.83;3.35;;;4.20;99.90;;;;;;4981982;28;20034;-76
2022/01/20 03:53:38;;;;;;;25.17;3.72;;;4.20;99.90;;;;;;5000681;28;20046;-76
2022/01/20 03:56:05;;;;;;;20.95;3.10;;;4.20;99.90;;;;;;4980978;28;20123;-76
2022/01/20 03:58:31;;;;;;;19.15;3.55;;;4.20;99.90;;;;;;5000621;28;20050;-75
2022/01/20 04:00:56;;;;;;;27.98;4.07;;;4.10;99.90;;;;;;4996671;28;20042;-76
2022/01/20 04:03:23;;;;;;;26.65;4.18;;;4.10;99.90;;;;;;5011334;28;20053;-76
2022/01/20 04:08:20;;;;;;;25.08;4.13;;;4.10;99.90;;;;;;4979521;28;20496;-76
2022/01/20 04:10:46;;;;;;;16.17;2.58;;;4.00;99.90;;;;;;4981430;28;20037;-75
2022/01/20 04:13:11;;;;;;;25.48;3.80;;;4.00;99.90;;;;;;4999195;28;20072;-76
2022/01/20 04:15:39;;;;;;;26.48;3.65;;;4.00;99.90;;;;;;5013289;28;20043;-76
2022/01/20 04:18:06;;;;;;;21.48;4.05;;;4.00;99.90;;;;;;5011427;28;20046;-76
2022/01/20 04:20:32;;;;;;;17.27;2.78;;;3.90;99.90;;;;;;4997021;28;20042;-75
2022/01/20 04:22:57;;;;;;;17.27;2.50;;;4.00;99.90;;;;;;5014221;28;20124;-76
2022/01/20 04:25:23;;;;;;;15.32;2.38;;;3.90;99.90;;;;;;4979306;28;20038;-76
2022/01/20 04:27:49;;;;;;;11.60;2.22;;;3.90;99.90;;;;;;4995425;28;20038;-76
2022/01/20 04:30:14;;;;;;;21.02;3.10;;;3.90;99.90;;;;;;4995459;28;20034;-76
2022/01/20 04:32:40;;;;;;;22.98;2.72;;;3.90;99.90;;;;;;5012152;28;20746;-76
2022/01/20 04:35:06;;;;;;;20.15;2.90;;;3.90;99.90;;;;;;5011680;28;20038;-76
2022/01/20 04:37:32;;;;;;;11.95;1.95;;;3.90;99.90;;;;;;5010944;28;20100;-76
2022/01/20 04:39:59;;;;;;;20.48;3.45;;;3.90;99.90;;;;;;4964006;28;20046;-76
2022/01/20 04:42:28;;;;;;;19.90;2.38;;;3.90;99.90;;;;;;4996458;28;20173;-75
2022/01/20 04:45:05;;;;;;;19.85;3.08;;;3.80;99.90;;;;;;4992840;28;20562;-76
2022/01/20 04:47:39;;;;;;;16.08;2.67;;;3.80;99.90;;;;;;4993542;28;20052;-75
2022/01/20 04:58:18;;;;;;;16.83;2.00;;;3.80;99.90;;;;;;4994386;28;20050;-74
2022/01/20 05:00:44;;;;;;;17.25;2.53;;;3.70;99.90;;;;;;4978063;28;20124;-74
2022/01/20 05:03:09;;;;;;;25.05;2.20;;;3.80;99.90;;;;;;4978130;28;20048;-75
2022/01/20 05:05:35;;;;;;;19.63;2.70;;;3.80;99.90;;;;;;4998967;28;20424;-75
2022/01/20 05:08:01;;;;;;;18.70;3.40;;;3.80;99.90;;;;;;4981097;28;20785;-75
2022/01/20 05:10:31;;;;;;;18.30;3.30;;;3.80;99.90;;;;;;4994122;28;20155;-75
2022/01/20 05:15:24;;;;;;;16.63;2.25;;;3.70;99.90;;;;;;4977516;28;20046;-75
2022/01/20 05:17:50;;;;;;;23.40;2.80;;;3.70;99.90;;;;;;4993951;28;20107;-75
2022/01/20 05:20:16;;;;;;;18.00;2.55;;;3.70;99.90;;;;;;5011104;28;20620;-75
2022/01/20 05:22:41;;;;;;;15.43;2.13;;;3.60;99.90;;;;;;5007352;28;20052;-75
2022/01/20 05:25:08;;;;;;;16.48;2.22;;;3.60;99.90;;;;;;4975722;28;20057;-75
2022/01/20 05:27:34;;;;;;;16.65;2.63;;;3.50;99.90;;;;;;5010806;28;20096;-75
2022/01/20 05:29:59;;;;;;;13.05;1.90;;;3.60;99.90;;;;;;4983043;28;20061;-74
2022/01/20 05:32:26;;;;;;;14.02;3.22;;;3.50;99.90;;;;;;5000625;28;20065;-75
2022/01/20 05:34:52;;;;;;;12.95;2.22;;;3.50;99.90;;;;;;4999118;28;20053;-75
2022/01/20 05:37:17;;;;;;;19.80;1.95;;;3.40;99.90;;;;;;4982012;28;20042;-75
2022/01/20 05:39:43;;;;;;;16.58;1.80;;;3.40;99.90;;;;;;4980547;28;20046;-75
2022/01/20 05:42:10;;;;;;;13.50;1.88;;;3.30;99.90;;;;;;4976488;28;20069;-75
2022/01/20 05:44:35;;;;;;;13.18;1.73;;;3.30;99.90;;;;;;4992508;28;20050;-75
2022/01/20 05:47:09;;;;;;;10.90;1.30;;;3.30;99.90;;;;;;5007314;28;20056;-75
2022/01/20 05:49:35;;;;;;;9.13;1.17;;;3.20;99.90;;;;;;5009327;28;20050;-75
2022/01/20 05:52:00;;;;;;;12.48;1.30;;;3.10;99.90;;;;;;4991694;28;20092;-75
2022/01/20 05:54:26;;;;;;;11.20;1.33;;;3.10;99.90;;;;;;4978125;28;20033;-75
2022/01/20 05:56:52;;;;;;;6.82;1.15;;;3.00;99.90;;;;;;4973850;28;20045;-75
2022/01/20 05:59:18;;;;;;;8.85;1.52;;;2.90;99.90;;;;;;4974931;28;20134;-75
2022/01/20 06:01:53;;;;;;;9.38;1.77;;;2.90;99.90;;;;;;4990587;28;20058;-75
2022/01/20 06:04:20;;;;;;;15.70;1.73;;;2.80;99.90;;;;;;4991701;28;20084;-75
2022/01/20 06:06:45;;;;;;;15.75;1.20;;;2.70;99.90;;;;;;5009187;28;20060;-75
2022/01/20 06:09:11;;;;;;;11.05;1.90;;;2.70;99.90;;;;;;5008129;28;20038;-75
2022/01/20 06:11:38;;;;;;;11.48;1.58;;;2.70;99.90;;;;;;4973437;28;20050;-74
2022/01/20 06:14:05;;;;;;;16.08;1.70;;;2.70;99.90;;;;;;5007851;28;20053;-75
2022/01/20 06:16:31;;;;;;;11.00;1.67;;;2.70;99.90;;;;;;4971809;28;20048;-75
2022/01/20 06:18:57;;;;;;;19.63;2.65;;;2.70;99.90;;;;;;4994977;28;20424;-75
2022/01/20 06:21:23;;;;;;;14.50;1.75;;;2.70;99.90;;;;;;4976125;28;20069;-75
2022/01/20 06:23:50;;;;;;;15.85;3.28;;;2.70;99.90;;;;;;4993950;28;20101;-75
2022/01/20 06:26:16;;;;;;;15.48;1.75;;;2.70;99.90;;;;;;4994549;28;20422;-75
2022/01/20 06:28:41;;;;;;;11.05;1.98;;;2.80;99.90;;;;;;4974706;28;20061;-74
2022/01/20 06:31:08;;;;;;;15.65;2.40;;;2.80;99.90;;;;;;4997714;28;20030;-74
2022/01/20 06:33:34;;;;;;;14.35;2.30;;;2.80;99.90;;;;;;4994716;28;20042;-75
2022/01/20 06:36:00;;;;;;;18.17;2.40;;;2.80;99.90;;;;;;4995973;28;20117;-75
2022/01/20 06:38:26;;;;;;;15.38;2.35;;;2.80;99.90;;;;;;4975279;28;20044;-75
2022/01/20 06:40:52;;;;;;;16.13;2.53;;;2.80;99.90;;;;;;5000163;28;20034;-75
2022/01/20 06:43:17;;;;;;;19.38;2.80;;;2.90;99.90;;;;;;4964462;28;20073;-75
2022/01/20 06:45:43;;;;;;;15.13;2.45;;;2.90;99.90;;;;;;5004367;28;20484;-75
2022/01/20 06:48:09;;;;;;;20.10;4.32;;;2.80;99.90;;;;;;5010021;28;20069;-75
2022/01/20 06:50:35;;;;;;;19.98;3.00;;;2.80;99.90;;;;;;5013999;28;20030;-75
2022/01/20 06:53:00;;;;;;;23.30;2.65;;;2.80;99.90;;;;;;4995719;28;20105;-75
2022/01/20 06:55:26;;;;;;;20.65;2.85;;;2.80;99.90;;;;;;5012607;28;20050;-74
2022/01/20 06:57:52;;;;;;;13.50;3.00;;;2.80;99.90;;;;;;4996748;28;20069;-75
2022/01/20 07:00:20;;;;;;;15.00;2.25;;;2.90;99.90;;;;;;4979672;28;20085;-75
2022/01/20 07:02:47;;;;;;;14.82;2.42;;;2.90;99.90;;;;;;4996039;28;20124;-75
2022/01/20 07:05:15;;;;;;;17.27;2.70;;;3.00;99.90;;;;;;4993301;28;20034;-75
2022/01/20 07:07:41;;;;;;;13.50;2.65;;;3.00;99.90;;;;;;5004293;28;20093;-75
2022/01/20 07:10:08;;;;;;;17.98;2.17;;;3.00;99.90;;;;;;4993348;28;20125;-75
2022/01/20 07:12:34;;;;;;;14.50;1.85;;;3.00;99.90;;;;;;4996638;28;20089;-75
2022/01/20 07:15:00;;;;;;;15.05;1.55;;;3.00;99.90;;;;;;4999269;28;20038;-75
2022/01/20 07:17:25;;;;;;;12.32;2.17;;;3.00;99.90;;;;;;4976002;28;20374;-75
2022/01/20 07:19:51;;;;;;;11.32;1.90;;;3.00;99.90;;;;;;4973349;28;20477;-75
2022/01/20 07:22:17;;;;;;;17.83;2.47;;;3.00;99.90;;;;;;4969652;28;20054;-75
2022/01/20 07:24:44;;;;;;;22.65;3.25;;;3.00;99.90;;;;;;4993740;28;20057;-75
2022/01/20 07:27:09;;;;;;;13.82;2.45;;;3.00;99.90;;;;;;4975685;28;20045;-75
2022/01/20 07:29:35;;;;;;;21.73;2.85;;;3.00;99.90;;;;;;5000071;28;20035;-75
2022/01/20 07:32:03;;;;;;;17.73;2.08;;;3.00;99.90;;;;;;4981193;28;20046;-75
2022/01/20 07:34:30;;;;;;;15.77;2.05;;;3.10;99.90;;;;;;4990600;28;20476;-75
2022/01/20 07:36:56;;;;;;;16.95;2.15;;;3.00;99.90;;;;;;4992053;28;20030;-76
2022/01/20 07:39:22;;;;;;;17.55;2.50;;;3.00;99.90;;;;;;4976077;28;20034;-75
2022/01/20 07:41:48;;;;;;;14.57;2.50;;;3.10;99.90;;;;;;4996806;28;20042;-75
2022/01/20 07:44:17;;;;;;;15.93;3.08;;;3.10;99.90;;;;;;4988481;28;20049;-76
2022/01/20 07:46:46;;;;;;;14.45;1.92;;;3.10;99.90;;;;;;4988740;28;20455;-76
2022/01/20 07:49:13;;;;;;;16.20;3.28;;;3.10;99.90;;;;;;5009382;28;20116;-76
2022/01/20 07:51:38;;;;;;;16.65;2.08;;;3.00;99.90;;;;;;4977023;28;20466;-76
2022/01/20 07:54:05;;;;;;;12.60;1.75;;;3.00;99.90;;;;;;4972865;28;20121;-76
2022/01/20 07:56:30;;;;;;;12.68;1.85;;;2.90;99.90;;;;;;4989205;28;20042;-75
2022/01/20 07:58:56;;;;;;;20.90;4.22;;;2.90;99.90;;;;;;4994155;28;20050;-75
2022/01/20 08:01:24;;;;;;;20.08;2.97;;;2.90;99.90;;;;;;4994609;28;20048;-76
2022/01/20 08:03:52;;;;;;;18.55;2.25;;;2.80;99.90;;;;;;4994108;28;20049;-75
2022/01/20 08:06:22;;;;;;;16.02;2.88;;;2.80;99.90;;;;;;4991361;28;20392;-75
2022/01/20 08:08:50;;;;;;;12.40;2.17;;;2.80;99.90;;;;;;4988049;28;20041;-75
2022/01/20 08:11:21;;;;;;;16.42;2.45;;;2.80;99.90;;;;;;4993967;28;20547;-75
2022/01/20 08:13:47;;;;;;;20.13;2.50;;;2.80;99.90;;;;;;4974346;28;20453;-75
2022/01/20 08:16:13;;;;;;;18.23;2.83;;;2.80;99.90;;;;;;4976593;28;20046;-76
2022/01/20 08:18:39;;;;;;;18.60;2.90;;;2.70;99.90;;;;;;5007015;28;20038;-75
2022/01/20 08:21:05;;;;;;;19.23;3.08;;;2.90;99.90;;;;;;4975579;28;20195;-75
2022/01/20 08:23:30;;;;;;;17.70;3.15;;;2.90;99.90;;;;;;5005338;28;20073;-75
2022/01/20 08:25:56;;;;;;;18.77;2.38;;;3.10;99.90;;;;;;4992791;28;20125;-76
2022/01/20 08:28:23;;;;;;;20.42;3.50;;;3.00;99.90;;;;;;4991136;28;20046;-75
2022/01/20 08:30:50;;;;;;;14.70;2.03;;;3.00;99.90;;;;;;4994168;28;20043;-76
2022/01/20 08:33:16;;;;;;;17.85;2.45;;;3.00;99.90;;;;;;4973759;28;20041;-75
2022/01/20 08:35:43;;;;;;;16.98;2.83;;;3.10;99.90;;;;;;4993055;28;20193;-75
2022/01/20 08:38:08;;;;;;;21.08;2.83;;;3.10;99.90;;;;;;4973247;28;20065;-75
2022/01/20 08:40:36;;;;;;;13.65;2.47;;;3.10;99.90;;;;;;5004713;28;20046;-76
2022/01/20 08:43:03;;;;;;;15.80;2.05;;;3.20;99.90;;;;;;4989712;28;20139;-75
2022/01/20 08:45:32;;;;;;;17.70;2.33;;;3.20;99.90;;;;;;5000283;28;20038;-75
2022/01/20 08:47:59;;;;;;;15.93;2.00;;;3.30;99.90;;;;;;4997566;28;20046;-75
2022/01/20 08:50:27;;;;;;;22.67;2.40;;;3.30;99.90;;;;;;5006215;28;20045;-75
2022/01/20 08:52:54;;;;;;;24.33;2.85;;;3.20;99.90;;;;;;4991952;28;20034;-75
2022/01/20 08:55:21;;;;;;;17.60;2.00;;;3.20;99.90;;;;;;5007735;28;20062;-75
2022/01/20 08:57:47;;;;;;;13.32;1.83;;;3.20;99.90;;;;;;4993338;28;20071;-75
2022/01/20 09:00:15;;;;;;;18.92;2.05;;;3.10;99.90;;;;;;4987434;28;20404;-75
2022/01/20 09:02:41;;;;;;;12.23;3.22;;;3.00;99.90;;;;;;4992195;28;20608;-75
2022/01/20 09:05:07;;;;;;;17.40;2.10;;;2.90;99.90;;;;;;4993447;28;20042;-75
2022/01/20 09:07:34;;;;;;;15.52;2.78;;;2.80;99.90;;;;;;4988889;28;20054;-75
2022/01/20 09:10:03;;;;;;;8.30;1.52;;;2.70;99.90;;;;;;4960136;28;20374;-75
2022/01/20 09:17:43;;;;;;;16.55;1.42;;;2.40;99.90;;;;;;4989421;28;20042;-75
2022/01/20 09:20:10;;;;;;;9.60;1.42;;;2.40;99.90;;;;;;4995756;28;20041;-76
2022/01/20 09:22:36;;;;;;;15.07;2.33;;;2.40;99.90;;;;;;4987596;28;20035;-75
2022/01/20 09:25:03;;;;;;;14.27;1.40;;;2.40;99.90;;;;;;4991176;28;20085;-75
2022/01/20 09:27:29;;;;;;;14.25;1.63;;;2.40;99.90;;;;;;4988299;28;20396;-75
2022/01/20 09:29:55;;;;;;;8.88;1.42;;;2.40;99.90;;;;;;4992517;28;20038;-75
2022/01/20 09:32:21;;;;;;;17.35;1.40;;;2.40;99.90;;;;;;4975270;28;20042;-76
2022/01/20 09:34:48;;;;;;;14.10;1.25;;;2.40;99.90;;;;;;4993044;28;20049;-75
2022/01/20 09:37:14;;;;;;;12.02;1.33;;;2.50;99.90;;;;;;4974128;28;20038;-75
2022/01/20 09:39:40;;;;;;;11.70;1.75;;;2.60;99.90;;;;;;5004781;28;20038;-75
2022/01/20 09:42:07;;;;;;;14.23;1.58;;;2.70;99.90;;;;;;5007741;28;20057;-75
2022/01/20 09:44:34;;;;;;;11.75;2.47;;;2.80;99.90;;;;;;4988990;28;20053;-75
2022/01/20 09:47:00;;;;;;;13.07;2.17;;;2.90;99.90;;;;;;4993293;28;20034;-75
2022/01/20 09:49:25;;;;;;;19.77;1.95;;;2.90;99.90;;;;;;4991698;28;20042;-75
2022/01/20 09:51:51;;;;;;;20.60;2.13;;;2.70;99.90;;;;;;4994410;28;20500;-75
2022/01/20 09:54:17;;;;;;;14.57;2.13;;;2.90;99.90;;;;;;4989959;28;20175;-75
2022/01/20 09:56:44;;;;;;;18.25;2.25;;;2.70;99.90;;;;;;4990204;28;20094;-75
2022/01/20 09:59:11;;;;;;;16.63;1.77;;;2.60;99.90;;;;;;4969716;28;20437;-75
2022/01/20 10:01:42;;;;;;;12.40;1.77;;;2.70;99.90;;;;;;5005998;28;20048;-75
2022/01/20 10:04:41;;;;;;;9.73;1.70;;;2.70;99.90;;;;;;4972394;28;20088;-75
2022/01/20 10:07:11;;;;;;;13.15;2.47;;;2.60;99.90;;;;;;4951053;28;20065;-75
2022/01/20 10:09:47;;;;;;;16.13;1.63;;;2.60;99.90;;;;;;4991370;28;20089;-75
2022/01/20 10:12:18;;;;;;;17.50;1.75;;;2.70;99.90;;;;;;5005284;28;20034;-75
2022/01/20 10:14:44;;;;;;;13.77;1.65;;;2.70;99.90;;;;;;5007409;28;20042;-75
2022/01/20 10:17:31;;;;;;;9.48;1.33;;;2.80;99.90;;;;;;4994246;28;20785;-75
2022/01/20 10:20:02;;;;;;;14.82;2.00;;;3.00;99.90;;;;;;4997638;28;20038;-75
2022/01/20 10:22:29;;;;;;;10.13;1.35;;;3.10;99.90;;;;;;4997246;28;20093;-75
2022/01/20 10:25:02;;;;;;;16.65;2.22;;;3.40;99.90;;;;;;4992549;28;20526;-75
2022/01/20 10:27:30;;;;;;;11.70;1.88;;;3.40;99.90;;;;;;5007596;28;20055;-75
2022/01/20 10:30:00;;;;;;;17.38;2.10;;;3.50;99.90;;;;;;4995078;28;20038;-75
2022/01/20 10:32:27;;;;;;;13.38;1.55;;;3.60;99.90;;;;;;4973753;28;20038;-75
2022/01/20 10:35:06;;;;;;;13.38;2.15;;;3.60;99.90;;;;;;4994319;28;20496;-75
2022/01/20 10:37:31;;;;;;;9.57;1.45;;;3.60;99.90;;;;;;4996934;28;20042;-75
2022/01/20 10:40:08;;;;;;;11.90;1.45;;;3.30;99.90;;;;;;4976419;28;20097;-75
2022/01/20 10:42:42;;;;;;;12.77;1.45;;;3.30;99.90;;;;;;4992320;28;20043;-75
2022/01/20 10:45:18;;;;;;;5.50;0.60;;;3.20;99.90;;;;;;4994201;28;20042;-75
2022/01/20 10:47:49;;;;;;;3.88;0.80;;;3.10;99.90;;;;;;5009631;28;20043;-75
2022/01/20 10:50:20;;;;;;;9.35;0.80;;;3.10;99.90;;;;;;4974494;28;20106;-75
2022/01/20 10:52:47;;;;;;;9.88;0.70;;;3.10;99.90;;;;;;4992146;28;20046;-75
2022/01/20 10:55:24;;;;;;;4.72;0.50;;;3.20;99.90;;;;;;4990480;28;20407;-75
2022/01/20 10:57:55;;;;;;;6.95;0.90;;;3.30;99.90;;;;;;4991179;28;20505;-75
2022/01/20 11:00:25;;;;;;;5.75;0.40;;;3.30;99.90;;;;;;4970588;28;20046;-75
2022/01/20 11:02:58;;;;;;;8.95;0.95;;;3.40;99.90;;;;;;4974262;28;20540;-75
2022/01/20 11:05:25;;;;;;;5.57;0.70;;;3.40;99.90;;;;;;4991101;28;20100;-75
2022/01/20 11:07:52;;;;;;;9.48;1.42;;;3.50;99.90;;;;;;4991672;28;20049;-76
2022/01/20 11:10:20;;;;;;;11.70;1.20;;;3.70;99.90;;;;;;5002888;28;20076;-76
2022/01/20 11:12:46;;;;;;;9.57;1.55;;;3.90;99.90;;;;;;4990732;28;20117;-76
2022/01/20 11:15:15;;;;;;;9.85;1.38;;;4.00;99.90;;;;;;5007579;28;20348;-75
2022/01/20 11:17:42;;;;;;;11.57;1.80;;;4.00;99.90;;;;;;4985106;28;20088;-76
2022/01/20 11:20:14;;;;;;;10.70;1.75;;;4.10;99.90;;;;;;4990737;28;20121;-75
2022/01/20 11:22:56;;;;;;;13.88;2.58;;;4.10;99.90;;;;;;4992301;28;20158;-76
2022/01/20 11:25:25;;;;;;;9.82;1.92;;;4.20;99.90;;;;;;4992542;28;20051;-76
2022/01/20 11:28:00;;;;;;;6.50;1.27;;;4.20;99.90;;;;;;5008442;28;20489;-76
2022/01/20 11:30:29;;;;;;;;;;;4.30;99.90;;;;;;4978482;28;20038;-76
2022/01/20 11:33:03;;;;;;;11.07;1.50;;;4.20;99.90;;;;;;4974671;28;19925;-76
2022/01/20 11:35:44;;;;;;;10.05;1.75;;;4.20;99.90;;;;;;4995452;28;20035;-75
2022/01/20 11:38:13;;;;;;;13.07;1.60;;;4.30;99.90;;;;;;4993752;28;20137;-76
2022/01/20 11:40:55;;;;;;;11.23;1.85;;;4.40;99.90;;;;;;5005626;28;20046;-76
2022/01/20 11:43:39;;;;;;;16.75;2.75;;;4.60;99.90;;;;;;4989155;28;20059;-75
2022/01/20 11:46:21;;;;;;;14.85;2.83;;;4.90;99.90;;;;;;4978784;28;20056;-76
2022/01/20 11:49:00;;;;;;;18.08;2.78;;;5.10;99.90;;;;;;4993061;28;20058;-76
2022/01/20 11:51:28;;;;;;;15.10;2.60;;;5.30;99.90;;;;;;4970568;28;20037;-76
2022/01/20 11:54:05;;;;;;;12.35;1.83;;;5.70;99.90;;;;;;4994657;28;21740;-76
2022/01/20 11:56:43;;;;;;;13.48;2.17;;;6.10;99.90;;;;;;5008115;28;20042;-76
2022/01/20 11:59:12;;;;;;;10.32;2.10;;;6.20;99.90;;;;;;5008306;28;20058;-76
2022/01/20 12:01:47;;;;;;;16.35;2.65;;;6.30;99.90;;;;;;4991095;28;20145;-76
2022/01/20 12:04:13;;;;;;;11.68;1.92;;;6.50;99.90;;;;;;4992872;28;20054;-76
2022/01/20 12:06:43;;;;;;;10.98;1.85;;;6.40;99.90;;;;;;4973849;28;20046;-76
2022/01/20 12:09:09;;;;;;;18.13;3.40;;;6.30;99.90;;;;;;4992289;28;20057;-76
2022/01/20 12:11:45;;;;;;;11.70;1.95;;;6.00;99.90;;;;;;5005605;28;20042;-76
2022/01/20 12:14:11;;;;;;;;;;;5.80;99.90;;;;;;4992768;28;20025;-76
2022/01/20 12:16:38;;;;;;;;;;;5.50;99.90;;;;;;5009721;28;20307;-76
2022/01/20 12:19:10;;;;;;;13.90;2.83;;;5.20;99.90;;;;;;5006020;28;19952;-76
2022/01/20 12:21:38;;;;;;;18.77;2.50;;;5.10;99.90;;;;;;5007163;28;20049;-76
2022/01/20 12:24:05;;;;;;;12.80;2.80;;;5.10;99.90;;;;;;4989532;28;20034;-76
2022/01/20 12:26:36;;;;;;;16.42;2.33;;;5.20;99.90;;;;;;4973452;28;20050;-76
2022/01/20 12:29:09;;;;;;;14.55;2.17;;;5.30;99.90;;;;;;5008159;28;20042;-76
2022/01/20 12:31:54;;;;;;;16.13;3.08;;;5.50;99.90;;;;;;5006380;28;20038;-76
2022/01/20 12:34:20;;;;;;;14.35;2.03;;;5.60;99.90;;;;;;5012136;28;20042;-76
2022/01/20 12:36:54;;;;;;;16.85;2.65;;;5.40;99.90;;;;;;4974338;28;20489;-76
2022/01/20 12:39:26;;;;;;;13.18;2.70;;;5.30;99.90;;;;;;4994906;28;20038;-76
2022/01/20 12:41:57;;;;;;;19.02;3.20;;;5.20;99.90;;;;;;4993837;28;20093;-76
2022/01/20 12:44:24;;;;;;;12.57;2.35;;;5.20;99.90;;;;;;4973596;28;20046;-75
2022/01/20 12:46:49;;;;;;;19.85;2.40;;;5.20;99.90;;;;;;5008159;28;20976;-76
2022/01/20 12:49:17;;;;;;;17.63;2.63;;;5.30;99.90;;;;;;4974528;28;20104;-76
2022/01/20 12:51:53;;;;;;;20.35;2.97;;;5.40;99.90;;;;;;5004522;28;20432;-76
2022/01/20 12:54:26;;;;;;;;;;;5.40;99.90;;;;;;4977875;28;20045;-76
2022/01/20 12:56:54;;;;;;;16.52;2.80;;;5.40;99.90;;;;;;5007085;28;19917;-76
2022/01/20 12:59:25;;;;;;;11.15;2.10;;;5.60;99.90;;;;;;4979785;28;20046;-76
2022/01/20 13:01:52;;;;;;;15.52;1.98;;;5.60;99.90;;;;;;5008084;28;20042;-76
2022/01/20 13:04:24;;;;;;;11.35;2.15;;;5.70;99.90;;;;;;4989739;28;20042;-76
2022/01/20 13:06:54;;;;;;;16.65;2.05;;;5.70;99.90;;;;;;4975106;28;20038;-76
2022/01/20 13:09:23;;;;;;;16.00;1.98;;;5.60;99.90;;;;;;5010073;28;20042;-76
2022/01/20 13:11:59;;;;;;;14.25;2.90;;;5.50;99.90;;;;;;5009604;28;20365;-76
2022/01/20 13:14:45;;;;;;;13.60;2.03;;;5.50;99.90;;;;;;5008072;28;20473;-75
2022/01/20 13:17:22;;;;;;;12.35;1.40;;;5.10;99.90;;;;;;4990059;28;20417;-76
2022/01/20 13:19:49;;;;;;;10.52;2.08;;;4.70;99.90;;;;;;4990513;28;20050;-75
2022/01/20 13:22:39;;;;;;;11.13;1.80;;;4.50;99.90;;;;;;4977759;28;20034;-76
2022/01/20 13:25:13;;;;;;;7.75;1.27;;;4.40;99.90;;;;;;4973063;28;20116;-76
2022/01/20 13:27:51;;;;;;;12.60;1.92;;;4.30;99.90;;;;;;5009749;28;20085;-75
2022/01/20 13:30:39;;;;;;;13.02;1.67;;;4.30;99.90;;;;;;4972012;28;20058;-76
2022/01/20 13:33:14;;;;;;;13.32;2.28;;;4.30;99.90;;;;;;5007909;28;20077;-76
2022/01/20 13:35:49;;;;;;;14.32;2.28;;;4.40;99.90;;;;;;4973496;28;20134;-76
2022/01/20 13:38:15;;;;;;;16.52;2.22;;;4.50;99.90;;;;;;4975004;28;20057;-75
2022/01/20 13:40:45;;;;;;;15.65;3.42;;;4.50;99.90;;;;;;4977379;28;20052;-75
2022/01/20 13:46:06;;;;;;;12.43;2.10;;;4.60;99.90;;;;;;5003686;28;20137;-75
2022/01/20 13:48:34;;;;;;;13.20;2.35;;;4.60;99.90;;;;;;4989869;28;20042;-75
2022/01/20 13:51:02;;;;;;;13.48;2.38;;;4.70;99.90;;;;;;5009115;28;20374;-76
2022/01/20 13:53:30;;;;;;;12.15;2.00;;;4.60;99.90;;;;;;4982885;28;20477;-75
2022/01/20 13:56:00;;;;;;;13.43;2.33;;;4.70;99.90;;;;;;5007832;28;20042;-75
2022/01/20 13:58:39;;;;;;;11.25;1.73;;;4.70;99.90;;;;;;4976189;28;20050;-73